Last 7 Days

Abernathy 1 (AB1)

Hourly Data | America/Los_Angeles
as of 8/25/19 2:02 PM PDT
Date & Time Temp (°F) RH (%) Dew Pt (°F) Wind Spd (mph) Wind Dir (°) Wind Gust (mph) Wind Gst Dir (°) Latest Rain (In) Solar Rad Tot Hr (Cal/cm2) Daily Rain (In) Daily Min Temp (°F) Daily Max Temp (°F)
8/25/19 - 1300 87.8 38 59.2 9.1 SW | 228 14.6 SSW | 208 0.00 68 0.00 61.5 89.0
8/25/19 - 1200 84.5 42 58.6 8.7 SW | 227 12.3 SW | 226 0.00 66 0.00 61.5 86.7
8/25/19 - 1100 80.4 49 59.4 7.6 SW | 227 12.0 SW | 216 0.00 58 0.00 61.5 83.4
8/25/19 - 1000 76.1 56 59.5 6.4 SSW | 212 13.2 SW | 220 0.00 44 0.00 61.5 78.5
8/25/19 - 0900 70.2 66 58.2 5.2 SSW | 212 11.3 SSW | 210 0.00 29 0.00 61.5 73.1
8/25/19 - 0800 64.3 76 56.5 5.4 SW | 227 8.6 SW | 214 0.00 13 0.00 61.5 67.4
8/25/19 - 0700 61.9 81 56.2 6.1 SW | 223 10.0 WSW | 252 0.00 1 0.00 61.5 66.3
8/25/19 - 0600 62.4 82 57.1 6.0 SW | 220 9.8 W | 276 0.00 0 0.00 62.0 66.3
8/25/19 - 0500 62.8 82 57.4 6.6 SW | 218 12.0 WSW | 258 0.00 0 0.00 62.5 66.3
8/25/19 - 0400 63.1 82 57.6 6.9 SW | 216 11.1 WSW | 253 0.00 0 0.00 62.7 66.3
8/25/19 - 0300 63.3 82 57.6 8.6 SW | 229 14.5 SW | 224 0.00 0 0.00 62.7 66.3
8/25/19 - 0200 64.2 78 57.4 7.1 SW | 226 12.5 WSW | 258 0.00 0 0.00 63.7 66.3
8/25/19 - 0100 65.5 75 57.4 7.3 SW | 221 12.0 SSW | 211 0.00 0 0.00 64.2 66.3
8/25/19 - 0000 66.4 74 57.8 7.4 SW | 219 12.1 WSW | 240 0.00 0 0.00 59.5 90.4
8/24/19 - 2300 67.4 73 58.4 7.2 SW | 214 11.5 SSW | 208 0.00 0 0.00 59.5 90.4
8/24/19 - 2200 69.1 69 58.6 8.2 SW | 219 13.8 S | 191 0.00 0 0.00 59.5 90.4
8/24/19 - 2100 71.5 65 59.1 7.0 SW | 223 11.3 SW | 226 0.00 0 0.00 59.5 90.4
8/24/19 - 2000 75.9 56 59.2 6.8 SW | 224 12.3 SW | 227 0.00 3 0.00 59.5 90.4
8/24/19 - 1900 81.8 48 60.0 8.6 SW | 234 13.5 SSW | 210 0.00 16 0.00 59.5 90.4
8/24/19 - 1800 85.6 43 60.8 8.9 WSW | 246 14.0 W | 263 0.00 29 0.00 59.5 90.4
8/24/19 - 1700 87.7 42 61.5 10.1 WSW | 244 14.6 SW | 235 0.00 45 0.00 59.5 90.4
8/24/19 - 1600 88.7 41 61.7 9.5 WSW | 237 15.0 SW | 236 0.00 58 0.00 59.5 90.4
8/24/19 - 1500 89.4 40 61.9 8.9 WSW | 237 14.0 WSW | 254 0.00 68 0.00 59.5 90.4
8/24/19 - 1400 89.5 34 57.5 8.3 WSW | 240 13.5 WSW | 246 0.00 72 0.00 59.5 90.4
8/24/19 - 1300 87.2 38 58.5 7.6 WSW | 246 13.5 WSW | 244 0.00 65 0.00 59.5 88.8
8/24/19 - 1200 84.4 41 58.4 6.1 WSW | 250 12.0 WNW | 292 0.00 67 0.00 59.5 86.2
8/24/19 - 1100 80.1 48 58.8 6.0 SW | 217 11.5 WSW | 242 0.00 58 0.00 59.5 82.7
8/24/19 - 1000 71.3 65 59.1 6.5 SW | 214 12.0 S | 190 0.00 44 0.00 59.5 75.8
8/24/19 - 0900 66.0 75 57.9 5.8 SW | 218 11.0 SSW | 210 0.00 29 0.00 59.5 67.9
8/24/19 - 0800 61.8 83 56.6 6.2 SW | 221 11.6 W | 272 0.00 13 0.00 59.5 63.5
8/24/19 - 0700 59.9 85 55.5 5.9 SW | 217 9.3 SW | 215 0.00 1 0.00 59.5 62.0
8/24/19 - 0600 60.2 83 55.0 6.3 SW | 220 11.6 SW | 218 0.00 0 0.00 59.6 62.0
8/24/19 - 0500 61.1 82 55.6 6.2 SW | 229 10.5 SSW | 212 0.00 0 0.00 60.6 62.0
8/24/19 - 0400 61.4 82 55.7 6.9 WSW | 237 10.6 SW | 217 0.00 0 0.00 61.0 62.0
8/24/19 - 0300 61.6 83 56.4 7.1 WSW | 238 11.8 S | 186 0.00 0 0.00 61.0 62.0
8/24/19 - 0200 61.4 85 56.9 8.6 SW | 231 12.6 SW | 235 0.00 0 0.00 61.0 61.9
8/24/19 - 0100 61.5 86 57.5 9.0 SW | 228 13.3 WSW | 254 0.00 0 0.00 61.2 61.9
8/24/19 - 0000 61.8 86 57.5 9.5 SW | 229 15.8 SW | 224 0.00 0 0.00 61.4 85.1
8/23/19 - 2300 62.7 83 57.6 9.9 SW | 235 15.8 SW | 232 0.00 0 0.00 62.0 85.1
8/23/19 - 2200 63.8 80 57.6 11.0 WSW | 243 17.0 WSW | 250 0.00 0 0.00 62.7 85.1
8/23/19 - 2100 65.6 76 57.8 9.9 WSW | 240 15.5 W | 270 0.00 0 0.00 64.2 85.1
8/23/19 - 2000 68.6 69 58.2 9.9 SW | 234 15.7 SW | 234 0.00 3 0.00 64.2 85.1
8/23/19 - 1900 74.6 59 59.3 10.7 WSW | 242 20.4 SW | 230 0.00 17 0.00 64.2 85.1
8/23/19 - 1800 79.2 52 60.0 9.9 WSW | 250 15.8 SW | 219 0.00 31 0.00 64.2 85.1
8/23/19 - 1700 82.4 48 61.0 11.0 WSW | 244 17.8 WSW | 238 0.00 46 0.00 64.2 85.1
8/23/19 - 1600 84.0 47 61.8 10.3 WSW | 246 17.3 WSW | 256 0.00 60 0.00 64.2 85.1
8/23/19 - 1500 84.2 45 60.8 10.8 WSW | 239 16.7 W | 265 0.00 70 0.00 64.2 85.1
8/23/19 - 1400 83.4 46 60.7 10.7 SW | 235 16.2 WSW | 251 0.00 76 0.00 64.2 84.1
8/23/19 - 1300 82.6 48 61.1 10.4 WSW | 239 16.0 SW | 236 0.00 75 0.00 64.2 83.5
8/23/19 - 1200 82.6 49 61.6 9.4 SW | 235 14.8 W | 260 0.00 69 0.00 64.2 83.5
8/23/19 - 1100 80.9 52 61.4 7.7 SW | 229 13.2 SW | 233 0.00 59 0.00 64.2 82.0
8/23/19 - 1000 77.9 55 60.3 6.0 SW | 225 10.8 SSW | 194 0.00 45 0.00 64.2 80.0
8/23/19 - 0900 73.1 63 59.6 4.8 SW | 225 8.6 WSW | 240 0.00 29 0.00 64.2 76.0
8/23/19 - 0800 67.1 74 58.7 3.8 SW | 222 8.0 SSW | 200 0.00 13 0.00 64.2 70.3
8/23/19 - 0700 64.9 76 57.3 4.7 SW | 228 8.1 SW | 222 0.00 1 0.00 64.2 68.0
8/23/19 - 0600 65.1 76 57.5 3.9 SW | 232 6.9 WSW | 249 0.00 0 0.00 64.2 68.0
8/23/19 - 0500 64.8 77 57.5 4.5 SW | 233 8.4 WSW | 237 0.00 0 0.00 64.2 68.0
8/23/19 - 0400 64.4 81 58.4 5.1 SW | 223 8.3 SW | 226 0.00 0 0.00 64.2 68.0
8/23/19 - 0300 64.7 81 58.7 6.1 SW | 228 10.6 SW | 233 0.00 0 0.00 64.3 68.0
8/23/19 - 0200 65.4 78 58.6 5.9 SW | 226 10.0 SW | 220 0.00 0 0.00 64.9 68.0
8/23/19 - 0100 66.8 74 58.4 6.5 SW | 219 11.1 SSW | 210 0.00 0 0.00 65.7 68.0
8/23/19 - 0000 68.8 70 58.6 5.5 SW | 220 9.5 WSW | 254 0.00 0 0.00 66.4 94.4
8/22/19 - 2300 70.8 64 58.0 5.4 SW | 223 9.3 SW | 225 0.00 0 0.00 66.4 94.4
8/22/19 - 2200 73.2 57 57.1 5.6 WSW | 237 9.6 WSW | 240 0.00 0 0.00 66.4 94.4
8/22/19 - 2100 76.1 53 57.8 4.7 SW | 234 8.3 WSW | 247 0.00 0 0.00 66.4 94.4
8/22/19 - 2000 82.3 48 60.6 4.6 WSW | 243 8.4 WSW | 241 0.00 3 0.00 66.4 94.4
8/22/19 - 1900 88.5 40 61.4 6.3 WSW | 247 12.3 WSW | 256 0.00 17 0.00 66.4 94.4
8/22/19 - 1800 91.8 39 63.2 7.8 WSW | 246 12.5 SSW | 209 0.00 31 0.00 66.4 94.4
8/22/19 - 1700 93.4 38 64.2 7.2 WSW | 247 12.3 SSW | 198 0.00 47 0.00 66.4 94.4
8/22/19 - 1600 94.0 37 64.0 6.0 WSW | 243 11.5 SW | 236 0.00 60 0.00 66.4 94.4
8/22/19 - 1500 93.6 42 67.2 4.2 SW | 228 10.5 SW | 226 0.00 69 0.00 66.4 94.3
8/22/19 - 1400 92.2 45 67.5 3.9 SSW | 210 9.5 WSW | 239 0.00 73 0.00 66.4 93.7
8/22/19 - 1300 90.1 47 67.2 4.9 SW | 232 10.1 WSW | 247 0.00 73 0.00 66.4 91.2
8/22/19 - 1200 87.2 52 67.6 4.6 SW | 225 8.6 S | 177 0.00 67 0.00 66.4 89.5
8/22/19 - 1100 82.4 59 66.8 4.3 SW | 222 7.4 WSW | 248 0.00 57 0.00 66.4 84.9
8/22/19 - 1000 78.4 67 66.6 4.3 SW | 215 8.3 SW | 221 0.00 44 0.00 66.4 80.7
8/22/19 - 0900 72.9 79 65.9 4.5 SW | 232 8.3 SW | 224 0.00 30 0.00 66.4 76.5
8/22/19 - 0800 67.8 88 64.1 3.9 SW | 233 6.9 SW | 229 0.00 9 0.00 66.4 71.3
8/22/19 - 0700 66.7 89 63.2 4.5 SW | 226 8.0 SW | 215 0.00 1 0.00 66.4 71.3
8/22/19 - 0600 67.3 87 63.4 5.2 SW | 228 9.0 W | 277 0.00 0 0.00 66.7 71.3
8/22/19 - 0500 68.2 86 63.9 5.8 SW | 234 9.0 WSW | 250 0.00 0 0.00 67.7 71.3
8/22/19 - 0400 69.2 84 64.1 5.6 SW | 232 11.6 W | 281 0.00 0 0.00 68.6 71.3
8/22/19 - 0300 69.6 82 64.0 6.1 SW | 227 11.0 SW | 233 0.00 0 0.00 69.3 71.3
8/22/19 - 0200 70.2 81 64.0 6.9 SW | 228 11.5 SW | 218 0.00 0 0.00 69.5 71.3
8/22/19 - 0100 70.9 79 64.1 8.0 SW | 233 13.3 SW | 233 0.00 0 0.00 70.6 71.3
8/22/19 - 0000 71.7 77 64.2 7.8 WSW | 243 17.0 SW | 221 0.00 0 0.00 60.4 91.4
8/21/19 - 2300 72.9 74 64.2 8.6 WSW | 240 14.8 W | 265 0.00 0 0.00 60.4 91.4
8/21/19 - 2200 74.6 70 64.1 8.0 WSW | 237 13.2 WSW | 248 0.00 0 0.00 60.4 91.4
8/21/19 - 2100 76.3 66 64.0 7.7 SW | 236 12.6 W | 266 0.00 0 0.00 60.4 91.4
8/21/19 - 2000 79.5 59 63.7 6.7 WSW | 247 13.0 WSW | 252 0.00 2 0.00 60.4 91.4
8/21/19 - 1900 86.0 46 62.8 8.9 WSW | 246 15.2 W | 260 0.00 17 0.00 60.4 91.4
8/21/19 - 1800 89.2 36 58.9 8.7 WSW | 240 15.2 SW | 225 0.00 31 0.00 60.4 91.4
8/21/19 - 1700 89.7 33 57.0 8.9 WSW | 246 13.8 WNW | 282 0.00 47 0.00 60.4 91.4
8/21/19 - 1600 90.4 34 58.2 8.8 WSW | 242 14.3 SW | 220 0.00 61 0.00 60.4 91.4
8/21/19 - 1500 90.2 36 59.5 8.4 WSW | 240 13.3 SW | 227 0.00 71 0.00 60.4 91.4
8/21/19 - 1400 87.9 40 60.6 8.1 SW | 233 12.6 WSW | 239 0.00 74 0.00 60.4 89.2
8/21/19 - 1300 85.1 45 61.3 7.5 SW | 214 12.6 SSW | 193 0.00 72 0.00 60.4 86.7
8/21/19 - 1200 81.8 49 60.6 6.3 SW | 222 11.5 SW | 233 0.00 68 0.00 60.4 83.7
8/21/19 - 1100 77.9 53 59.4 6.1 SW | 220 10.6 SW | 226 0.00 58 0.00 60.4 79.8
8/21/19 - 1000 73.1 61 59.0 6.2 SW | 225 10.1 WSW | 255 0.00 45 0.00 60.4 75.8
8/21/19 - 0900 68.0 71 58.1 6.3 SW | 231 10.1 WSW | 239 0.00 29 0.00 60.4 70.5
8/21/19 - 0800 63.4 79 56.7 5.7 SW | 228 9.0 SSW | 212 0.00 13 0.00 60.4 65.8
8/21/19 - 0700 61.2 82 55.7 5.1 SW | 226 8.8 WSW | 245 0.00 1 0.00 60.4 63.8
8/21/19 - 0600 60.9 81 55.1 6.8 SW | 230 11.8 WSW | 246 0.00 0 0.00 60.4 63.8
8/21/19 - 0500 61.0 83 55.8 7.2 SW | 234 11.5 SW | 215 0.00 0 0.00 60.4 63.8
8/21/19 - 0400 61.6 83 56.3 7.8 SW | 232 12.1 S | 182 0.00 0 0.00 61.0 63.8
8/21/19 - 0300 62.0 81 56.2 8.1 SW | 236 14.2 WSW | 246 0.00 0 0.00 61.6 63.8
8/21/19 - 0200 62.6 81 56.7 7.1 SW | 224 12.3 SW | 214 0.00 0 0.00 62.1 63.8
8/21/19 - 0100 63.4 78 56.4 6.6 SW | 230 11.0 WSW | 238 0.00 0 0.00 62.8 63.8
8/21/19 - 0000 63.2 77 55.8 6.8 SW | 231 11.3 WSW | 237 0.00 0 0.00 56.9 82.9
8/20/19 - 2300 63.2 76 55.6 7.2 SW | 225 12.3 SSW | 212 0.00 0 0.00 56.9 82.9
8/20/19 - 2200 63.9 74 55.4 7.8 SW | 227 13.3 W | 259 0.00 0 0.00 56.9 82.9
8/20/19 - 2100 65.6 69 55.1 8.4 WSW | 242 15.3 WSW | 248 0.00 0 0.00 56.9 82.9
8/20/19 - 2000 69.6 61 55.5 7.8 WSW | 250 15.3 SW | 225 0.00 4 0.00 56.9 82.9
8/20/19 - 1900 75.3 51 55.9 9.2 WSW | 252 17.2 WSW | 253 0.00 17 0.00 56.9 82.9
8/20/19 - 1800 79.5 49 58.9 9.8 WSW | 246 17.3 WSW | 248 0.00 35 0.00 56.9 82.9
8/20/19 - 1700 80.4 49 59.4 9.3 WSW | 252 15.3 WSW | 258 0.00 39 0.00 56.9 82.9
8/20/19 - 1600 82.2 47 59.7 9.4 WSW | 245 13.6 SW | 225 0.00 63 0.00 56.9 82.9
8/20/19 - 1500 81.1 49 60.4 9.8 SW | 232 16.2 SW | 227 0.00 72 0.00 56.9 81.7
8/20/19 - 1400 78.7 53 60.2 9.3 SW | 236 14.0 SW | 222 0.00 76 0.00 56.9 80.7
8/20/19 - 1300 75.3 57 59.2 9.8 WSW | 239 15.3 WSW | 248 0.00 76 0.00 56.9 77.7
8/20/19 - 1200 71.5 63 58.4 9.7 WSW | 239 15.2 S | 188 0.00 70 0.00 56.9 73.5
8/20/19 - 1100 68.3 69 57.7 9.1 WSW | 237 14.8 WSW | 244 0.00 60 0.00 56.9 69.4
8/20/19 - 1000 65.4 75 57.3 9.0 SW | 236 14.8 SW | 227 0.00 46 0.00 56.9 66.8
8/20/19 - 0900 61.4 84 56.6 7.0 WSW | 243 12.0 WSW | 242 0.00 28 0.00 56.9 64.2
8/20/19 - 0800 58.3 90 55.4 7.6 WSW | 250 13.3 SW | 234 0.00 7 0.00 56.9 60.3
8/20/19 - 0700 57.3 91 54.6 7.5 WSW | 246 12.3 SW | 236 0.00 1 0.00 56.9 60.3
8/20/19 - 0600 57.6 90 54.7 7.5 WSW | 247 12.1 WSW | 241 0.00 0 0.00 57.2 60.3
8/20/19 - 0500 57.7 90 54.9 5.9 WSW | 243 11.5 SW | 230 0.00 0 0.00 57.3 60.3
8/20/19 - 0400 57.7 90 54.7 7.9 SW | 235 12.8 SW | 227 0.00 0 0.00 57.5 60.3
8/20/19 - 0300 58.1 88 54.6 8.8 SW | 232 14.6 WNW | 282 0.00 0 0.00 57.7 60.3
8/20/19 - 0200 59.1 85 54.8 9.6 WSW | 242 15.3 SSW | 206 0.00 0 0.00 58.3 60.3
8/20/19 - 0100 59.9 84 55.2 6.7 SW | 236 13.0 WNW | 302 0.00 0 0.00 59.4 60.3
8/20/19 - 0000 60.6 81 54.9 6.8 WSW | 239 12.0 W | 260 0.00 0 0.00 56.9 77.4
8/19/19 - 2300 61.0 80 55.0 6.6 WSW | 241 10.6 W | 260 0.00 0 0.00 56.9 77.4
8/19/19 - 2200 62.4 78 55.4 6.3 WSW | 250 10.5 W | 260 0.00 0 0.00 56.9 77.4
8/19/19 - 2100 63.6 79 56.9 7.2 WSW | 245 13.5 WSW | 257 0.00 0 0.00 56.9 77.4
8/19/19 - 2000 67.1 70 56.9 7.4 WSW | 257 14.2 W | 266 0.00 4 0.00 56.9 77.4
8/19/19 - 1900 72.7 59 57.7 9.1 WSW | 251 15.5 W | 263 0.00 18 0.00 56.9 77.4
8/19/19 - 1800 76.0 55 58.8 9.5 WSW | 239 15.0 SSW | 212 0.00 33 0.00 56.9 77.4
8/19/19 - 1700 76.7 55 59.2 10.3 SW | 234 16.7 NW | 305 0.00 49 0.00 56.9 77.4
8/19/19 - 1600 76.6 55 59.4 10.2 WSW | 238 16.0 WSW | 257 0.00 63 0.00 56.9 77.4
8/19/19 - 1500 76.7 55 59.3 9.2 WSW | 238 15.5 WSW | 252 0.00 73 0.00 56.9 77.4
8/19/19 - 1400 73.8 59 58.8 9.2 WSW | 244 14.8 WNW | 286 0.00 77 0.00 56.9 75.8
8/19/19 - 1300 71.9 63 58.5 9.8 WSW | 242 15.8 WSW | 247 0.00 76 0.00 56.9 72.9
8/19/19 - 1200 69.6 66 57.6 9.4 WSW | 242 15.2 SW | 219 0.00 71 0.00 56.9 70.6
8/19/19 - 1100 67.0 70 56.8 8.5 WSW | 245 13.6 W | 273 0.00 60 0.00 56.9 68.6
8/19/19 - 1000 63.1 76 55.6 7.7 WSW | 247 14.0 SSW | 208 0.00 41 0.00 56.9 65.6
8/19/19 - 0900 60.4 82 54.9 7.0 WSW | 251 11.1 WSW | 239 0.00 26 0.00 56.9 62.1
8/19/19 - 0800 58.0 87 54.2 6.1 WSW | 255 11.5 WSW | 256 0.00 7 0.00 56.9 58.9
8/19/19 - 0700 57.2 88 53.6 6.2 WSW | 253 10.8 WSW | 247 0.00 1 0.00 56.9 58.7
8/19/19 - 0600 57.5 87 53.7 6.2 WSW | 252 10.8 W | 261 0.00 0 0.00 57.0 58.7
8/19/19 - 0500 57.6 87 53.9 5.6 W | 263 11.0 W | 263 0.00 0 0.00 57.0 58.7
8/19/19 - 0400 57.4 87 53.7 7.1 WSW | 255 12.5 W | 260 0.00 0 0.00 57.0 58.7
8/19/19 - 0300 57.3 87 53.5 7.2 WSW | 250 12.0 SW | 236 0.00 0 0.00 57.0 58.7
8/19/19 - 0200 57.3 87 53.4 5.7 WSW | 250 12.8 WSW | 242 0.00 0 0.00 57.0 58.7
8/19/19 - 0100 58.0 86 53.9 6.8 WSW | 239 12.8 SSW | 204 0.00 0 0.00 57.3 58.7
8/19/19 - 0000 58.9 86 54.6 5.8 SW | 230 10.6 SW | 222 0.00 0 0.00 57.5 78.6
8/18/19 - 2300 59.5 84 54.7 5.9 WSW | 242 11.0 SW | 228 0.00 0 0.00 57.5 78.6
8/18/19 - 2200 60.2 81 54.4 4.7 SW | 227 10.8 SSW | 210 0.00 0 0.00 57.5 78.6
8/18/19 - 2100 61.2 79 54.6 7.0 WSW | 237 13.2 SW | 217 0.00 0 0.00 57.5 78.6
8/18/19 - 2000 63.9 74 55.6 7.4 W | 266 15.5 WNW | 285 0.00 4 0.00 57.5 78.6
8/18/19 - 1900 69.6 64 57.0 9.1 WSW | 254 16.8 SW | 224 0.00 19 0.00 57.5 78.6
8/18/19 - 1800 72.5 60 57.7 11.6 WSW | 247 18.7 WNW | 285 0.00 34 0.00 57.5 78.6
8/18/19 - 1700 74.9 55 57.8 12.0 WSW | 247 17.7 W | 264 0.00 50 0.00 57.5 78.6
8/18/19 - 1600 77.2 52 58.1 10.1 WSW | 248 17.2 WSW | 245 0.00 64 0.00 57.5 78.6
8/18/19 - 1500 77.3 51 57.8 10.8 WSW | 245 16.5 SW | 236 0.00 72 0.00 57.5 78.6
Max 94.0 91 67.6 12.0 - 20.4 - 0.00 77 0.00 70.6 94.4
Avg 71.3 67 58.6 7.4 - 12.6 - 0.00 24 - - -
Min 57.2 33 53.4 3.8 - 6.9 - 0.00 0 0.00 56.9 58.7
Total - - - - - - - 0.00 - - - -
Tip: Bookmark this page for easy future reference